Time;durP1;ratioP1;P1;durP2;ratioP2;P2;SDS_P1;SDS_P2;PMS_P1;PMS_P2;Temp;Humidity;BMP_temperature;BMP_pressure;BME280_temperature;BME280_humidity;BME280_pressure;Samples;Min_cycle;Max_cycle;Signal;HPM_P1;HPM_P2
2022/10/13 00:00:49;;;;;;;;;;;;;;;-142.75;100.00;77464.09;5011845;28;19925;-67
2022/10/13 00:03:14;;;;;;;;;;;;;;;-142.75;100.00;77460.13;5013070;28;19914;-68
2022/10/13 00:05:41;;;;;;;;;;;;;;;-142.75;100.00;77460.13;5013887;28;19914;-68
2022/10/13 00:08:06;;;;;;;;;;;;;;;-142.75;100.00;77460.13;5032331;28;20367;-68
2022/10/13 00:10:34;;;;;;;;;;;;;;;-142.75;100.00;77450.28;5032257;28;20019;-69
2022/10/13 00:12:59;;;;;;;;;;;;;;;-142.75;100.00;77460.13;5030595;28;19917;-68
2022/10/13 00:15:25;;;;;;;;;;;;;;;-142.75;100.00;77460.13;5012397;28;19925;-67
2022/10/13 00:17:50;;;;;;;;;;;;;;;-142.75;100.00;77452.25;5011252;28;19913;-69
2022/10/13 00:20:15;;;;;;;;;;;;;;;-142.75;100.00;77448.34;5012877;28;20457;-67
2022/10/13 00:22:40;;;;;;;;;;;;;;;-142.75;100.00;77446.34;5012702;28;20375;-68
2022/10/13 00:25:06;;;;;;;;;;;;;;;-142.75;100.00;77442.41;5011433;28;19913;-67
2022/10/13 00:27:31;;;;;;;;;;;;;;;-142.75;100.00;77428.63;5012498;28;20343;-67
2022/10/13 00:29:56;;;;;;;;;;;;;;;-142.75;100.00;77426.66;5012706;28;19921;-67
2022/10/13 00:32:21;;;;;;;;;;;;;;;-142.75;100.00;77440.44;5012572;28;19917;-67
2022/10/13 00:34:46;;;;;;;;;;;;;;;-142.75;100.00;77440.44;5012596;28;19920;-67
2022/10/13 00:37:12;;;;;;;;;;;;;;;-142.75;100.00;77426.66;5012313;28;20391;-67
2022/10/13 00:39:37;;;;;;;;;;;;;;;-142.75;100.00;77420.75;5012437;28;20283;-67
2022/10/13 00:42:03;;;;;;;;;;;;;;;-142.75;100.00;77424.69;5012368;28;19921;-67
2022/10/13 00:44:47;;;;;;;;;;;;;;;-142.75;100.00;77424.69;5011199;28;19967;-67
2022/10/13 00:47:12;;;;;;;;;;;;;;;-142.75;100.00;77426.66;5012193;28;19917;-68
2022/10/13 00:49:37;;;;;;;;;;;;;;;-142.75;100.00;77424.69;5011235;28;20362;-67
2022/10/13 00:52:03;;;;;;;;;;;;;;;-142.75;100.00;77422.72;5012858;28;19913;-68
2022/10/13 00:54:28;;;;;;;;;;;;;;;-142.75;100.00;77426.66;5012464;28;19913;-67
2022/10/13 00:56:54;;;;;;;;;;;;;;;-142.75;100.00;77420.75;5012193;28;19964;-67
2022/10/13 00:59:22;;;;;;;;;;;;;;;-142.75;100.00;77420.75;5012344;28;19981;-68
2022/10/13 01:01:47;;;;;;;;;;;;;;;-142.75;100.00;77426.66;5012250;28;20028;-67
2022/10/13 01:04:13;;;;;;;;;;;;;;;-142.75;100.00;77424.69;5011395;28;20008;-67
2022/10/13 01:06:39;;;;;;;;;;;;;;;-142.75;100.00;77416.81;5012054;28;19996;-67
2022/10/13 01:09:04;;;;;;;;;;;;;;;-142.75;100.00;77420.75;5012492;28;19918;-67
2022/10/13 01:11:30;;;;;;;;;;;;;;;-142.75;100.00;77420.75;5012341;28;19913;-67
2022/10/13 01:13:58;;;;;;;;;;;;;;;-142.75;100.00;77422.72;5012460;28;19961;-65
2022/10/13 01:16:39;;;;;;;;;;;;;;;-142.75;100.00;77401.06;5020418;28;20016;-65
2022/10/13 01:19:23;;;;;;;;;;;;;;;-142.75;100.00;77373.50;5031797;28;19913;-67
2022/10/13 01:21:51;;;;;;;;;;;;;;;-142.75;100.00;77389.25;5031901;28;19921;-68
2022/10/13 01:24:37;;;;;;;;;;;;;;;-142.75;100.00;77389.25;5035414;28;19913;-67
2022/10/13 01:27:18;;;;;;;;;;;;;;;-142.75;100.00;77395.16;5035535;28;20441;-68
2022/10/13 01:30:00;;;;;;;;;;;;;;;-142.75;100.00;77399.09;5034409;28;20004;-65
2022/10/13 01:32:44;;;;;;;;;;;;;;;-142.75;100.00;77406.97;5034298;28;19920;-67
2022/10/13 01:35:23;;;;;;;;;;;;;;;-142.75;100.00;77403.03;5034308;28;19967;-66
2022/10/13 01:37:54;;;;;;;;;;;;;;;-142.75;100.00;77399.09;5035077;28;19975;-67
2022/10/13 01:40:38;;;;;;;;;;;;;;;-142.75;100.00;77391.22;5034266;28;20374;-67
2022/10/13 01:43:09;;;;;;;;;;;;;;;-142.75;100.00;77387.28;5035537;28;19988;-67
2022/10/13 01:46:00;;;;;;;;;;;;;;;-142.75;100.00;77387.28;5035424;28;19913;-68
2022/10/13 01:48:26;;;;;;;;;;;;;;;-142.75;100.00;77385.31;5032799;28;19967;-67
2022/10/13 01:50:53;;;;;;;;;;;;;;;-142.75;100.00;77381.38;5034089;28;19952;-67
2022/10/13 01:53:19;;;;;;;;;;;;;;;-142.75;100.00;77377.44;5035286;28;20444;-67
2022/10/13 01:55:52;;;;;;;;;;;;;;;-142.75;100.00;77377.44;5034036;28;19950;-67
2022/10/13 01:58:17;;;;;;;;;;;;;;;-142.75;100.00;77361.69;5034802;28;19913;-68
2022/10/13 02:00:50;;;;;;;;;;;;;;;-142.75;100.00;77357.75;5034983;28;20280;-66
2022/10/13 02:03:22;;;;;;;;;;;;;;;-142.75;100.00;77342.00;5035305;28;20359;-69
2022/10/13 02:06:03;;;;;;;;;;;;;;;-142.75;100.00;77353.81;5035153;28;19935;-68
2022/10/13 02:08:35;;;;;;;;;;;;;;;-142.75;100.00;77334.13;5034705;28;19956;-67
2022/10/13 02:11:12;;;;;;;;;;;;;;;-142.75;100.00;77338.06;5034815;28;20389;-66
2022/10/13 02:13:40;;;;;;;;;;;;;;;-142.75;100.00;77342.00;5034891;28;19913;-66
2022/10/13 02:16:05;;;;;;;;;;;;;;;-142.75;100.00;77343.97;5034887;28;20297;-66
2022/10/13 02:18:33;;;;;;;;;;;;;;;-142.75;100.00;77357.75;5034380;28;20011;-66
2022/10/13 02:20:59;;;;;;;;;;;;;;;-142.75;100.00;77359.72;5034730;28;19918;-67
2022/10/13 02:23:25;;;;;;;;;;;;;;;-142.75;100.00;77349.88;5034730;28;20357;-66
2022/10/13 02:25:50;;;;;;;;;;;;;;;-142.75;100.00;77342.00;5034607;28;19923;-66
2022/10/13 02:28:16;;;;;;;;;;;;;;;-142.75;100.00;77334.13;5034308;28;19999;-67
2022/10/13 02:30:42;;;;;;;;;;;;;;;-142.75;100.00;77330.19;5034740;28;19949;-67
2022/10/13 02:33:08;;;;;;;;;;;;;;;-142.75;100.00;77345.94;5034541;28;19966;-67
2022/10/13 02:35:33;;;;;;;;;;;;;;;-142.75;100.00;77334.13;5033336;28;19928;-66
2022/10/13 02:37:59;;;;;;;;;;;;;;;-142.75;100.00;77343.97;5034059;28;19916;-67
2022/10/13 02:40:24;;;;;;;;;;;;;;;-142.75;100.00;77326.25;5034285;28;20373;-67
2022/10/13 02:42:50;;;;;;;;;;;;;;;-142.75;100.00;77338.06;5032871;28;19924;-67
2022/10/13 02:45:15;;;;;;;;;;;;;;;-142.75;100.00;77342.00;5034282;28;19913;-67
2022/10/13 02:47:40;;;;;;;;;;;;;;;-142.75;100.00;77340.03;5034004;28;19966;-66
2022/10/13 02:50:06;;;;;;;;;;;;;;;-142.75;100.00;77324.28;5034192;28;19920;-67
2022/10/13 02:52:31;;;;;;;;;;;;;;;-142.75;100.00;77322.31;5034135;28;19913;-68
2022/10/13 02:54:56;;;;;;;;;;;;;;;-142.75;100.00;77326.25;5032787;28;19945;-67
2022/10/13 02:57:21;;;;;;;;;;;;;;;-142.75;100.00;77318.38;5033795;28;19917;-66
2022/10/13 02:59:47;;;;;;;;;;;;;;;-142.75;100.00;77316.41;5033936;28;19920;-66
2022/10/13 03:02:12;;;;;;;;;;;;;;;-142.75;100.00;77292.78;5033982;28;19921;-66
2022/10/13 03:04:37;;;;;;;;;;;;;;;-142.75;100.00;77292.78;5033959;28;19920;-66
2022/10/13 03:07:02;;;;;;;;;;;;;;;-142.75;100.00;77304.59;5033619;28;19913;-67
2022/10/13 03:09:28;;;;;;;;;;;;;;;-142.75;100.00;77306.56;5033798;28;19913;-67
2022/10/13 03:11:53;;;;;;;;;;;;;;;-142.75;100.00;77308.53;5033713;28;19913;-66
2022/10/13 03:14:18;;;;;;;;;;;;;;;-142.75;100.00;77304.59;5033780;28;19913;-65
2022/10/13 03:16:43;;;;;;;;;;;;;;;-142.75;100.00;77308.53;5033491;28;19955;-67
2022/10/13 03:19:09;;;;;;;;;;;;;;;-142.75;100.00;77300.66;5032375;28;19952;-66
2022/10/13 03:21:34;;;;;;;;;;;;;;;-142.75;100.00;77294.75;5033530;28;19917;-67
2022/10/13 03:23:59;;;;;;;;;;;;;;;-142.75;100.00;77288.84;5033479;28;20397;-66
2022/10/13 03:26:24;;;;;;;;;;;;;;;-142.75;100.00;77290.81;5033485;28;20349;-64
2022/10/13 03:28:50;;;;;;;;;;;;;;;-142.75;100.00;77292.78;5033190;28;19917;-67
2022/10/13 03:31:16;;;;;;;;;;;;;;;-142.75;100.00;77279.00;5032079;28;19913;-66
2022/10/13 03:33:41;;;;;;;;;;;;;;;-142.75;100.00;77267.19;5033466;28;19913;-67
2022/10/13 03:36:07;;;;;;;;;;;;;;;-142.75;100.00;77255.38;5033326;28;19921;-66
2022/10/13 03:38:33;;;;;;;;;;;;;;;-142.75;100.00;77245.53;5032919;28;19956;-68
2022/10/13 03:41:09;;;;;;;;;;;;;;;-142.75;100.00;77251.44;5033065;28;20342;-67
2022/10/13 03:43:34;;;;;;;;;;;;;;;-142.75;100.00;77273.09;5033232;28;20280;-67
2022/10/13 03:46:00;;;;;;;;;;;;;;;-142.75;100.00;77296.72;5032925;28;19919;-66
2022/10/13 03:48:26;;;;;;;;;;;;;;;-142.75;100.00;77302.63;5032789;28;20391;-67
2022/10/13 03:50:51;;;;;;;;;;;;;;;-142.75;100.00;77298.69;5031716;28;19936;-67
2022/10/13 03:53:16;;;;;;;;;;;;;;;-142.75;100.00;77302.63;5031725;28;19917;-66
2022/10/13 03:55:47;;;;;;;;;;;;;;;-142.75;100.00;77304.59;5032980;28;20297;-67
2022/10/13 03:58:12;;;;;;;;;;;;;;;-142.75;100.00;77306.56;5032662;28;19917;-66
2022/10/13 04:00:37;;;;;;;;;;;;;;;-142.75;100.00;77314.44;5032841;28;20311;-68
2022/10/13 04:03:02;;;;;;;;;;;;;;;-142.75;100.00;77310.50;5031619;28;19913;-67
2022/10/13 04:05:28;;;;;;;;;;;;;;;-142.75;100.00;77302.63;5032852;28;19963;-68
2022/10/13 04:07:53;;;;;;;;;;;;;;;-142.75;100.00;77294.75;5032424;28;19917;-65
2022/10/13 04:10:18;;;;;;;;;;;;;;;-142.75;100.00;77292.78;5032764;28;19917;-68
2022/10/13 04:12:43;;;;;;;;;;;;;;;-142.75;100.00;77300.66;5032544;28;19913;-66
2022/10/13 04:15:09;;;;;;;;;;;;;;;-142.75;100.00;77288.84;5032643;28;19920;-68
2022/10/13 04:17:34;;;;;;;;;;;;;;;-142.75;100.00;77288.84;5032177;28;19913;-66
2022/10/13 04:19:59;;;;;;;;;;;;;;;-142.75;100.00;77282.94;5032619;28;19951;-67
2022/10/13 04:22:24;;;;;;;;;;;;;;;-142.75;100.00;77288.84;5032359;28;19918;-66
2022/10/13 04:24:49;;;;;;;;;;;;;;;-142.75;100.00;77296.72;5032503;28;19920;-67
2022/10/13 04:27:17;;;;;;;;;;;;;;;-142.75;100.00;77290.81;5032329;28;19913;-67
2022/10/13 04:29:42;;;;;;;;;;;;;;;-142.75;100.00;77277.03;5032424;28;19917;-66
2022/10/13 04:32:08;;;;;;;;;;;;;;;-142.75;100.00;77279.00;5032362;28;20429;-67
2022/10/13 04:34:33;;;;;;;;;;;;;;;-142.75;100.00;77286.88;5032365;28;19914;-67
2022/10/13 04:36:58;;;;;;;;;;;;;;;-142.75;100.00;77290.81;5031978;28;19920;-68
2022/10/13 04:39:23;;;;;;;;;;;;;;;-142.75;100.00;77280.97;5032290;28;19920;-67
2022/10/13 04:41:49;;;;;;;;;;;;;;;-142.75;100.00;77298.69;5040932;22;19975;-65
2022/10/13 04:44:14;;;;;;;;;;;;;;;-142.75;100.00;77288.84;5011111;28;19963;-66
2022/10/13 04:46:40;;;;;;;;;;;;;;;-142.75;100.00;77271.13;5011542;28;20060;-66
2022/10/13 04:49:05;;;;;;;;;;;;;;;-142.75;100.00;77269.16;5012488;28;19943;-65
2022/10/13 04:51:30;;;;;;;;;;;;;;;-142.75;100.00;77273.09;5012398;28;19968;-65
2022/10/13 04:53:56;;;;;;;;;;;;;;;-142.75;100.00;77265.22;5012415;28;19921;-66
2022/10/13 04:56:21;;;;;;;;;;;;;;;-142.75;100.00;77273.09;5012381;28;20410;-65
2022/10/13 04:58:47;;;;;;;;;;;;;;;-142.75;100.00;77269.16;5015063;28;19949;-65
2022/10/13 05:01:17;;;;;;;;;;;;;;;-142.75;100.00;77271.13;5016406;28;19920;-66
2022/10/13 05:03:42;;;;;;;;;;;;;;;-142.75;100.00;77267.19;5016482;28;20383;-65
2022/10/13 05:06:15;;;;;;;;;;;;;;;-142.75;100.00;77265.22;5016381;28;19921;-66
2022/10/13 05:08:40;;;;;;;;;;;;;;;-142.75;100.00;77265.22;5016153;28;19920;-66
2022/10/13 05:11:05;;;;;;;;;;;;;;;-142.75;100.00;77265.22;5016199;28;19914;-65
2022/10/13 05:13:30;;;;;;;;;;;;;;;-142.75;100.00;77251.44;5016369;28;20455;-66
2022/10/13 05:15:56;;;;;;;;;;;;;;;-142.75;100.00;77247.50;5014984;28;19917;-66
2022/10/13 05:18:21;;;;;;;;;;;;;;;-142.75;100.00;77251.44;5015844;28;19925;-67
2022/10/13 05:20:47;;;;;;;;;;;;;;;-142.75;100.00;77249.47;5016038;28;20384;-66
2022/10/13 05:23:12;;;;;;;;;;;;;;;-142.75;100.00;77259.31;5015979;28;19913;-66
2022/10/13 05:25:38;;;;;;;;;;;;;;;-142.75;100.00;77249.47;5015990;28;19920;-66
2022/10/13 05:28:03;;;;;;;;;;;;;;;-142.75;100.00;77251.44;5015729;28;19921;-66
2022/10/13 05:30:28;;;;;;;;;;;;;;;-142.75;100.00;77249.47;5014656;28;19913;-65
2022/10/13 05:32:54;;;;;;;;;;;;;;;-142.75;100.00;77245.53;5015845;28;19953;-66
2022/10/13 05:35:19;;;;;;;;;;;;;;;-142.75;100.00;77231.75;5015818;28;19957;-65
2022/10/13 05:37:44;;;;;;;;;;;;;;;-142.75;100.00;77235.69;5015372;28;19913;-67
2022/10/13 05:40:09;;;;;;;;;;;;;;;-142.75;100.00;77235.69;5015712;28;20448;-66
2022/10/13 05:42:35;;;;;;;;;;;;;;;-142.75;100.00;77229.78;5003804;28;20033;-66
2022/10/13 05:45:00;;;;;;;;;;;;;;;-142.75;100.00;77223.88;4996114;28;19914;-66
2022/10/13 05:47:27;;;;;;;;;;;;;;;-142.75;100.00;77212.06;4995725;28;19921;-66
2022/10/13 05:49:52;;;;;;;;;;;;;;;-142.75;100.00;77194.34;4999223;28;19921;-65
2022/10/13 05:52:17;;;;;;;;;;;;;;;-142.75;100.00;77168.75;4995901;28;19925;-66
2022/10/13 05:54:47;;;;;;;;;;;;;;;-142.75;100.00;77168.75;5010044;28;19940;-65
2022/10/13 05:57:19;;;;;;;;;;;;;;;-142.75;100.00;77184.50;5015169;28;20347;-65
2022/10/13 05:59:48;;;;;;;;;;;;;;;-142.75;100.00;77188.44;4995405;28;19925;-66
2022/10/13 06:02:15;;;;;;;;;;;;;;;-142.75;100.00;77188.44;4995684;28;19920;-66
2022/10/13 06:04:44;;;;;;;;;;;;;;;-142.75;100.00;77196.31;4995652;28;19921;-66
2022/10/13 06:07:09;;;;;;;;;;;;;;;-142.75;100.00;77208.13;4997135;28;19943;-66
2022/10/13 06:09:36;;;;;;;;;;;;;;;-142.75;100.00;77204.19;4999246;28;19917;-65
2022/10/13 06:12:02;;;;;;;;;;;;;;;-142.75;100.00;77204.19;4995501;28;19951;-66
2022/10/13 06:14:27;;;;;;;;;;;;;;;-142.75;100.00;77200.25;4995557;28;19913;-66
2022/10/13 06:16:52;;;;;;;;;;;;;;;-142.75;100.00;77204.19;4995181;28;19957;-66
2022/10/13 06:19:17;;;;;;;;;;;;;;;-142.75;100.00;77202.22;4999746;28;19932;-65
2022/10/13 06:21:43;;;;;;;;;;;;;;;-142.75;100.00;77192.38;4992321;28;19940;-65
2022/10/13 06:24:08;;;;;;;;;;;;;;;-142.75;100.00;77198.28;4997419;28;19926;-66
2022/10/13 06:26:33;;;;;;;;;;;;;;;-142.75;100.00;77217.97;4991926;28;19953;-65
2022/10/13 06:28:59;;;;;;;;;;;;;;;-142.75;100.00;77204.19;5006593;28;19917;-66
2022/10/13 06:31:24;;;;;;;;;;;;;;;-142.75;100.00;77196.31;5000038;28;19972;-65
2022/10/13 06:33:49;;;;;;;;;;;;;;;-142.75;100.00;77210.09;4995467;28;19922;-65
2022/10/13 06:36:14;;;;;;;;;;;;;;;-142.75;100.00;77208.13;5010129;28;20004;-67
2022/10/13 06:38:39;;;;;;;;;;;;;;;-142.75;100.00;77206.16;4993010;28;19928;-68
2022/10/13 06:41:05;;;;;;;;;;;;;;;-142.75;100.00;77208.13;4995035;28;19914;-65
2022/10/13 06:43:30;;;;;;;;;;;;;;;-142.75;100.00;77208.13;4994929;28;19918;-66
2022/10/13 06:45:59;;;;;;;;;;;;;;;-142.75;100.00;77200.25;4995039;28;20269;-66
2022/10/13 06:48:24;;;;;;;;;;;;;;;-142.75;100.00;77208.13;4993958;28;19926;-65
2022/10/13 06:50:49;;;;;;;;;;;;;;;-142.75;100.00;77196.31;4994506;28;20376;-66
2022/10/13 06:53:14;;;;;;;;;;;;;;;-142.75;100.00;77190.41;4994410;28;19914;-66
2022/10/13 06:55:42;;;;;;;;;;;;;;;-142.75;100.00;77188.44;4991612;28;19996;-66
2022/10/13 06:58:07;;;;;;;;;;;;;;;-142.75;100.00;77186.47;4990847;28;20020;-66
2022/10/13 07:00:32;;;;;;;;;;;;;;;-142.75;100.00;77184.50;4993098;28;20041;-66
2022/10/13 07:02:57;;;;;;;;;;;;;;;-142.75;100.00;77194.34;4994144;28;19914;-66
2022/10/13 07:05:22;;;;;;;;;;;;;;;-142.75;100.00;77192.38;4990704;28;20327;-66
2022/10/13 07:07:50;;;;;;;;;;;;;;;-142.75;100.00;77196.31;4993962;28;19921;-66
2022/10/13 07:10:15;;;;;;;;;;;;;;;-142.75;100.00;77198.28;4994125;28;19937;-66
2022/10/13 07:12:41;;;;;;;;;;;;;;;-142.75;100.00;77186.47;4993892;28;20375;-66
2022/10/13 07:15:06;;;;;;;;;;;;;;;-142.75;100.00;77180.56;4994052;28;20531;-66
2022/10/13 07:17:31;;;;;;;;;;;;;;;-142.75;100.00;77172.69;4993624;28;20303;-66
2022/10/13 07:19:56;;;;;;;;;;;;;;;-142.75;100.00;77168.75;4987029;28;19922;-65
2022/10/13 07:22:22;;;;;;;;;;;;;;;-142.75;100.00;77166.78;4974648;28;19918;-66
2022/10/13 07:24:47;;;;;;;;;;;;;;;-142.75;100.00;77162.84;4974883;28;19968;-66
2022/10/13 07:27:12;;;;;;;;;;;;;;;-142.75;100.00;77154.97;4974462;28;19969;-66
2022/10/13 07:29:37;;;;;;;;;;;;;;;-142.75;100.00;77149.06;4974716;28;20396;-66
2022/10/13 07:32:03;;;;;;;;;;;;;;;-142.75;100.00;77139.22;4981728;28;20017;-65
2022/10/13 07:34:28;;;;;;;;;;;;;;;-142.75;100.00;77149.06;4993166;28;19960;-66
2022/10/13 07:36:53;;;;;;;;;;;;;;;-142.75;100.00;77141.19;4992733;28;20004;-66
2022/10/13 07:39:18;;;;;;;;;;;;;;;-142.75;100.00;77139.22;4992986;28;19918;-65
2022/10/13 07:41:43;;;;;;;;;;;;;;;-142.75;100.00;77141.19;4992104;28;20349;-65
2022/10/13 07:44:09;;;;;;;;;;;;;;;-142.75;100.00;77129.38;4993926;28;20306;-65
2022/10/13 07:46:34;;;;;;;;;;;;;;;-142.75;100.00;77117.56;4993566;28;19914;-65
2022/10/13 07:48:59;;;;;;;;;;;;;;;-142.75;100.00;77105.75;4993006;28;20351;-66
2022/10/13 07:51:24;;;;;;;;;;;;;;;-142.75;100.00;77105.75;4993230;28;20331;-66
2022/10/13 07:53:50;;;;;;;;;;;;;;;-142.75;100.00;77111.66;4993278;28;20026;-67
2022/10/13 07:56:15;;;;;;;;;;;;;;;-142.75;100.00;77109.69;4993243;28;19913;-65
2022/10/13 07:58:45;;;;;;;;;;;;;;;-142.75;100.00;77111.66;4992688;28;19925;-65
2022/10/13 08:01:11;;;;;;;;;;;;;;;-142.75;100.00;77113.63;4992869;28;19914;-65
2022/10/13 08:03:36;;;;;;;;;;;;;;;-142.75;100.00;77105.75;4993015;28;20313;-65
2022/10/13 08:06:02;;;;;;;;;;;;;;;-142.75;100.00;77097.88;4993002;28;19917;-66
2022/10/13 08:08:28;;;;;;;;;;;;;;;-142.75;100.00;77097.88;4992767;28;19918;-65
2022/10/13 08:10:54;;;;;;;;;;;;;;;-142.75;100.00;77111.66;4992705;28;19968;-65
2022/10/13 08:13:19;;;;;;;;;;;;;;;-142.75;100.00;77111.66;4990952;28;19964;-66
2022/10/13 08:15:45;;;;;;;;;;;;;;;-142.75;100.00;77109.69;4992845;28;19989;-66
2022/10/13 08:18:11;;;;;;;;;;;;;;;-142.75;100.00;77105.75;4992535;28;19921;-66
2022/10/13 08:20:40;;;;;;;;;;;;;;;-142.75;100.00;77099.84;4992781;28;19914;-66
2022/10/13 08:23:05;;;;;;;;;;;;;;;-142.75;100.00;77101.81;4992740;28;19918;-66
2022/10/13 08:25:34;;;;;;;;;;;;;;;-142.75;100.00;77097.88;4992757;28;20663;-66
2022/10/13 08:28:00;;;;;;;;;;;;;;;-142.75;100.00;77095.91;4992373;28;19920;-66
2022/10/13 08:30:25;;;;;;;;;;;;;;;-142.75;100.00;77095.91;4992735;28;20439;-66
2022/10/13 08:32:50;;;;;;;;;;;;;;;-142.75;100.00;77080.16;4991744;28;19914;-66
2022/10/13 08:35:15;;;;;;;;;;;;;;;-142.75;100.00;77070.31;4991366;28;19913;-66
2022/10/13 08:37:40;;;;;;;;;;;;;;;-142.75;100.00;77080.16;4991026;28;20491;-66
2022/10/13 08:40:06;;;;;;;;;;;;;;;-142.75;100.00;77076.22;4992640;28;19913;-66
2022/10/13 08:42:31;;;;;;;;;;;;;;;-142.75;100.00;77072.28;4992780;28;20056;-66
2022/10/13 08:45:01;;;;;;;;;;;;;;;-142.75;100.00;77091.97;4992885;28;20020;-66
2022/10/13 08:47:32;;;;;;;;;;;;;;;-142.75;100.00;77088.03;4992146;28;19925;-66
2022/10/13 08:49:59;;;;;;;;;;;;;;;-142.75;100.00;77090.00;4989577;28;19918;-66
2022/10/13 08:52:26;;;;;;;;;;;;;;;-142.75;100.00;77093.94;4992433;28;20012;-66
2022/10/13 08:54:52;;;;;;;;;;;;;;;-142.75;100.00;77082.13;4992492;28;19925;-66
2022/10/13 08:57:18;;;;;;;;;;;;;;;-142.75;100.00;77091.97;4992430;28;20438;-66
2022/10/13 08:59:43;;;;;;;;;;;;;;;-142.75;100.00;77064.41;4992717;28;19922;-66
2022/10/13 09:02:13;;;;;;;;;;;;;;;-142.75;100.00;77058.50;4992605;28;20384;-66
2022/10/13 09:04:40;;;;;;;;;;;;;;;-142.75;100.00;77050.63;4992900;28;19914;-68
2022/10/13 09:07:08;;;;;;;;;;;;;;;-142.75;100.00;77058.50;4991154;28;20004;-66
2022/10/13 09:09:34;;;;;;;;;;;;;;;-142.75;100.00;77048.66;4992576;28;20346;-66
2022/10/13 09:12:00;;;;;;;;;;;;;;;-142.75;100.00;77054.56;4996327;28;19921;-66
2022/10/13 09:14:48;;;;;;;;;;;;;;;-142.75;100.00;77050.63;4997310;28;19924;-66
2022/10/13 09:17:13;;;;;;;;;;;;;;;-142.75;100.00;77034.88;4990119;28;19914;-66
2022/10/13 09:19:39;;;;;;;;;;;;;;;-142.75;100.00;77032.91;4992371;28;19924;-66
2022/10/13 09:22:23;;;;;;;;;;;;;;;-142.75;100.00;77058.50;4992489;28;20005;-66
2022/10/13 09:25:06;;;;;;;;;;;;;;;-142.75;100.00;77032.91;4986747;28;19914;-66
2022/10/13 09:27:40;;;;;;;;;;;;;;;-142.75;100.00;77030.94;4989834;28;19914;-66
2022/10/13 09:30:25;;;;;;;;;;;;;;;-142.75;100.00;77011.25;4992498;28;20411;-66
2022/10/13 09:32:50;;;;;;;;;;;;;;;-142.75;100.00;77040.78;4992364;28;19937;-66
2022/10/13 09:35:22;;;;;;;;;;;;;;;-142.75;100.00;77021.09;4992437;28;20372;-66
2022/10/13 09:38:00;;;;;;;;;;;;;;;-142.75;100.00;77034.88;4991722;28;19921;-65
2022/10/13 09:40:29;;;;;;;;;;;;;;;-142.75;100.00;77036.84;4991620;28;19918;-66
2022/10/13 09:42:55;;;;;;;;;;;;;;;-142.75;100.00;77028.97;4990592;28;19918;-66
2022/10/13 09:45:23;;;;;;;;;;;;;;;-142.75;100.00;77009.28;4995196;28;20307;-66
2022/10/13 09:47:50;;;;;;;;;;;;;;;-142.75;100.00;77019.13;4995237;28;20462;-65
2022/10/13 09:50:19;;;;;;;;;;;;;;;-142.75;100.00;77015.19;4995430;28;19921;-65
2022/10/13 09:52:45;;;;;;;;;;;;;;;-142.75;100.00;76989.59;4995330;28;19913;-65
2022/10/13 09:55:29;;;;;;;;;;;;;;;-142.75;100.00;76979.75;4995369;28;19914;-66
2022/10/13 09:57:55;;;;;;;;;;;;;;;-142.75;100.00;76962.03;4993352;28;20319;-66
2022/10/13 10:00:22;;;;;;;;;;;;;;;-142.75;100.00;76956.13;4995245;28;19925;-66
2022/10/13 10:03:25;;;;;;;;;;;;;;;-142.75;100.00;76948.25;4995222;28;19913;-65
2022/10/13 10:05:51;;;;;;;;;;;;;;;-142.75;100.00;76954.16;4973367;28;19914;-65
2022/10/13 10:08:24;;;;;;;;;;;;;;;-142.75;100.00;76940.38;4973018;28;19920;-65
2022/10/13 10:10:50;;;;;;;;;;;;;;;-142.75;100.00;76948.25;4982430;28;20347;-65
2022/10/13 10:13:15;;;;;;;;;;;;;;;-142.75;100.00;76936.44;4995138;28;19913;-65
2022/10/13 10:15:43;;;;;;;;;;;;;;;-142.75;100.00;76922.66;4995131;28;19960;-65
2022/10/13 10:18:15;;;;;;;;;;;;;;;-142.75;100.00;76912.81;4991991;28;20384;-65
2022/10/13 10:20:48;;;;;;;;;;;;;;;-142.75;100.00;76924.63;4991745;28;19992;-66
2022/10/13 10:23:21;;;;;;;;;;;;;;;-142.75;100.00;76912.81;4994365;28;19918;-66
2022/10/13 10:25:49;;;;;;;;;;;;;;;-142.75;100.00;76904.94;4994422;28;19918;-65
2022/10/13 10:28:14;;;;;;;;;;;;;;;-142.75;100.00;76881.31;4993273;28;19914;-66
2022/10/13 10:31:12;;;;;;;;;;;;;;;-142.75;100.00;76865.56;4994051;28;19924;-66
2022/10/13 10:33:48;;;;;;;;;;;;;;;-142.75;100.00;76855.72;4979083;28;20376;-65
2022/10/13 10:36:20;;;;;;;;;;;;;;;-142.75;100.00;76851.78;4993792;28;19914;-65
2022/10/13 10:38:54;;;;;;;;;;;;;;;-142.75;100.00;76847.84;4993439;28;19918;-64
2022/10/13 10:41:30;;;;;;;;;;;;;;;-142.75;100.00;76834.06;4989776;28;20417;-66
2022/10/13 10:44:16;;;;;;;;;;;;;;;-142.75;100.00;76838.00;4993601;28;19918;-65
2022/10/13 10:46:43;;;;;;;;;;;;;;;-142.75;100.00;76855.72;4991148;28;19918;-65
2022/10/13 10:49:29;;;;;;;;;;;;;;;-142.75;100.00;76828.16;4993571;28;19913;-65
2022/10/13 10:51:55;;;;;;;;;;;;;;;-142.75;100.00;76853.75;4992974;28;19918;-64
2022/10/13 10:54:24;;;;;;;;;;;;;;;-142.75;100.00;76857.69;4993446;28;19918;-65
2022/10/13 10:56:54;;;;;;;;;;;;;;;-142.75;100.00;76839.97;4992621;28;19914;-65
2022/10/13 10:59:26;;;;;;;;;;;;;;;-142.75;100.00;76843.91;5036355;22;19925;-65
2022/10/13 11:02:01;;;;;;;;;;;;;;;-142.75;100.00;76845.88;5032092;28;20338;-66
2022/10/13 11:04:35;;;;;;;;;;;;;;;-142.75;100.00;76828.16;5031073;28;19913;-66
2022/10/13 11:07:01;;;;;;;;;;;;;;;-142.75;100.00;76814.38;5033157;28;20418;-66
2022/10/13 11:09:42;;;;;;;;;;;;;;;-142.75;100.00;76816.34;5010076;28;20005;-65
2022/10/13 11:12:29;;;;;;;;;;;;;;;-142.75;100.00;76832.09;5022488;28;19959;-67
2022/10/13 11:15:10;;;;;;;;;;;;;;;-142.75;100.00;76822.25;4985852;28;19914;-66
2022/10/13 11:17:37;;;;;;;;;;;;;;;-142.75;100.00;76808.50;5022341;28;20570;-66
2022/10/13 11:20:20;;;;;;;;;;;;;;;-142.75;100.00;76790.78;5005025;28;20015;-67
2022/10/13 11:22:54;;;;;;;;;;;;;;;-142.75;100.00;76792.75;5024371;28;20395;-67
2022/10/13 11:25:38;;;;;;;;;;;;;;;-142.75;100.00;76822.25;5023398;28;19913;-67
2022/10/13 11:28:22;;;;;;;;;;;;;;;-142.75;100.00;76814.38;5006082;28;20012;-64
2022/10/13 11:30:51;;;;;;;;;;;;;;;-142.75;100.00;76810.44;5024114;28;20032;-66
2022/10/13 11:33:34;;;;;;;;;;;;;;;-142.75;100.00;76818.31;5022948;28;20334;-65
2022/10/13 11:36:18;;;;;;;;;;;;;;;-142.75;100.00;76806.50;5023428;28;20391;-66
2022/10/13 11:38:49;;;;;;;;;;;;;;;-142.75;100.00;76818.31;5005686;28;19991;-68
2022/10/13 11:41:30;;;;;;;;;;;;;;;-142.75;100.00;76816.34;5004819;28;19919;-67
2022/10/13 11:44:02;;;;;;;;;;;;;;;-142.75;100.00;76830.13;5022716;28;19956;-68
2022/10/13 11:46:27;;;;;;;;;;;;;;;-142.75;100.00;76824.22;5004580;28;19967;-65
2022/10/13 11:49:11;;;;;;;;;;;;;;;-142.75;100.00;76834.06;5002493;28;19921;-67
2022/10/13 11:51:48;;;;;;;;;;;;;;;-142.75;100.00;76865.56;5019507;28;20286;-67
2022/10/13 11:54:30;;;;;;;;;;;;;;;-142.75;100.00;76845.88;5020980;28;19913;-68
2022/10/13 11:56:56;;;;;;;;;;;;;;;-142.75;100.00;76855.72;5021895;28;19917;-68
2022/10/13 11:59:32;;;;;;;;;;;;;;;-142.75;100.00;76843.91;5026587;28;19996;-68
2022/10/13 12:01:58;;;;;;;;;;;;;;;-142.75;100.00;76865.56;5008128;28;20448;-68
2022/10/13 12:04:25;;;;;;;;;;;;;;;-142.75;100.00;76871.47;5012445;28;19913;-68
2022/10/13 12:06:56;;;;;;;;;;;;;;;-142.75;100.00;76869.50;5012777;28;19952;-69
2022/10/13 12:09:21;;;;;;;;;;;;;;;-142.75;100.00;76873.44;4995377;28;19924;-68
2022/10/13 12:11:54;;;;;;;;;;;;;;;-142.75;100.00;76871.47;4995483;28;20008;-68
2022/10/13 12:14:21;;;;;;;;;;;;;;;-142.75;100.00;76871.47;5013068;28;19945;-69
2022/10/13 12:16:53;;;;;;;;;;;;;;;-142.75;100.00;76879.34;5012682;28;19960;-68
2022/10/13 12:19:20;;;;;;;;;;;;;;;-142.75;100.00;76887.22;5012843;28;19918;-68
2022/10/13 12:21:49;;;;;;;;;;;;;;;-142.75;100.00;76901.00;5012837;28;20303;-69
2022/10/13 12:24:14;;;;;;;;;;;;;;;-142.75;100.00;76916.75;5012924;28;19914;-68